54M weather

Wolf River Airport
Rossville, Tennessee, United States

Public forecast

Using degrees Fahrenheit for public forecast. Weather courtesy of forecast.io.

Closest aviation weather report (METAR) to Wolf River Airport

Closest report is Olive Branch Airport, 11.1 nm (20.6 km) WSW. Retrieved 2019/10/16 14:50 UTC (51 minutes ago):

KOLV 161450Z 01013G19KT 10SM SCT250 12/03 A3008

Closest aviation forecast (TAF) to Wolf River Airport

Closest forecast is Memphis International Airport, 19.5 nm (36.1 km) W. Retrieved 2019/10/16 12:33 UTC (3 hours ago):

TAF KMEM 161129Z 1612/1718 36011G17KT P6SM FEW045 FEW250 FM161800 35009KT P6SM SKC FM170100 34003KT P6SM SKC FM171300 05005KT P6SM SKC